createdAt,value
2018-04-10T00:00:37.763Z,14.63
2018-04-10T00:03:06.007Z,15.70
2018-04-10T00:05:34.286Z,16.57
2018-04-10T00:08:02.531Z,17.60
2018-04-10T00:10:30.778Z,17.63
2018-04-10T00:12:59.347Z,17.87
2018-04-10T00:15:27.599Z,16.53
2018-04-10T00:17:55.847Z,17.60
2018-04-10T00:20:24.191Z,17.30
2018-04-10T00:22:52.483Z,18.10
2018-04-10T00:25:20.734Z,17.43
2018-04-10T00:27:49.006Z,17.20
2018-04-10T00:30:17.260Z,16.60
2018-04-10T00:32:45.507Z,15.77
2018-04-10T00:35:15.113Z,17.20
2018-04-10T00:37:43.343Z,17.67
2018-04-10T00:40:11.595Z,15.43
2018-04-10T00:42:40.219Z,16.73
2018-04-10T00:45:08.475Z,18.50
2018-04-10T00:47:36.727Z,17.07
2018-04-10T00:50:05.066Z,18.37
2018-04-10T00:52:33.306Z,17.50
2018-04-10T00:55:01.620Z,17.83
2018-04-10T00:57:29.883Z,17.40
2018-04-10T00:59:58.183Z,17.70
2018-04-10T01:02:26.441Z,19.43
2018-04-10T01:04:54.767Z,18.87
2018-04-10T01:07:23.020Z,17.83
2018-04-10T01:09:51.270Z,17.40
2018-04-10T01:12:19.543Z,17.80
2018-04-10T01:14:48.187Z,17.50
2018-04-10T01:17:17.207Z,18.23
2018-04-10T01:19:45.482Z,20.13
2018-04-10T01:22:13.732Z,18.43
2018-04-10T01:24:41.987Z,19.13
2018-04-10T01:27:10.736Z,18.33
2018-04-10T01:29:38.983Z,18.03
2018-04-10T01:32:07.235Z,18.87
2018-04-10T01:34:35.515Z,18.03
2018-04-10T01:37:04.531Z,17.43
2018-04-10T01:39:32.789Z,19.83
2018-04-10T01:42:01.067Z,18.20
2018-04-10T01:44:30.552Z,17.53
2018-04-10T01:46:58.800Z,17.17
2018-04-10T01:49:27.374Z,18.00
2018-04-10T01:51:55.630Z,15.93
2018-04-10T01:54:23.884Z,17.90
2018-04-10T01:56:52.171Z,19.10
2018-04-10T01:59:21.192Z,17.43
2018-04-10T02:01:49.530Z,16.57
2018-04-10T02:04:18.571Z,16.80
2018-04-10T02:06:46.912Z,15.50
2018-04-10T02:09:15.963Z,15.37
2018-04-10T02:17:44.371Z,15.30
2018-04-10T02:20:12.654Z,16.93
2018-04-10T02:22:41.055Z,17.00
2018-04-10T02:25:09.325Z,15.93
2018-04-10T02:27:37.583Z,16.03
2018-04-10T02:30:05.961Z,17.67
2018-04-10T02:32:34.207Z,17.20
2018-04-10T02:35:02.715Z,17.27
2018-04-10T02:37:30.975Z,18.10
2018-04-10T02:39:59.225Z,16.30
2018-04-10T02:42:27.503Z,17.43
2018-04-10T02:44:56.520Z,16.97
2018-04-10T02:47:25.626Z,18.30
2018-04-10T02:49:53.914Z,17.40
2018-04-10T02:52:22.168Z,18.23
2018-04-10T02:54:50.418Z,17.47
2018-04-10T02:57:19.047Z,17.50
2018-04-10T02:59:47.307Z,18.17
2018-04-10T03:02:15.551Z,16.53
2018-04-10T03:04:43.840Z,17.73
2018-04-10T03:07:12.868Z,14.00
2018-04-10T03:09:41.115Z,15.10
2018-04-10T03:12:09.407Z,13.63
2018-04-10T03:14:37.659Z,15.60
2018-04-10T03:17:06.679Z,14.20
2018-04-10T03:19:35.243Z,13.60
2018-04-10T03:22:03.496Z,17.13
2018-04-10T03:24:31.740Z,17.30
2018-04-10T03:27:00.029Z,16.83
2018-04-10T03:29:28.267Z,15.20
2018-04-10T03:31:56.525Z,16.93
2018-04-10T03:34:24.815Z,17.27
2018-04-10T03:36:53.067Z,16.27
2018-04-10T03:39:22.088Z,16.00
2018-04-10T03:41:50.475Z,17.00
2018-04-10T03:44:18.727Z,16.07
2018-04-10T03:46:46.979Z,15.13
2018-04-10T03:49:16.022Z,17.47
2018-04-10T03:51:44.279Z,16.67
2018-04-10T03:54:13.291Z,17.00
2018-04-10T03:56:41.579Z,18.63
2018-04-10T03:59:09.823Z,18.47
2018-04-10T04:01:38.076Z,16.53
2018-04-10T04:04:06.829Z,17.70
2018-04-10T04:06:35.084Z,15.67
2018-04-10T04:09:03.332Z,17.57
2018-04-10T04:11:31.961Z,16.57
2018-04-10T04:14:00.215Z,18.37
2018-04-10T04:16:40.702Z,18.30
2018-04-10T04:19:20.874Z,15.50
2018-04-10T04:22:08.184Z,14.77
2018-04-10T04:24:36.438Z,15.40
2018-04-10T04:27:04.687Z,14.97
2018-04-10T04:29:33.323Z,15.27
2018-04-10T04:32:01.657Z,14.77
2018-04-10T04:34:30.676Z,15.87
2018-04-10T04:36:59.374Z,16.80
2018-04-10T04:39:27.634Z,17.37
2018-04-10T04:41:56.257Z,16.77
2018-04-10T04:44:25.127Z,17.77
2018-04-10T04:46:53.395Z,17.17
2018-04-10T04:49:21.668Z,17.30
2018-04-10T04:51:50.271Z,16.87
2018-04-10T04:54:18.539Z,17.40
2018-04-10T04:56:46.785Z,16.90
2018-04-10T04:59:15.406Z,16.43
2018-04-10T05:01:43.655Z,16.47
2018-04-10T05:04:11.907Z,16.57
2018-04-10T05:06:40.555Z,16.20
2018-04-10T05:09:08.795Z,17.27
2018-04-10T05:11:37.051Z,16.57
2018-04-10T05:14:05.616Z,16.80
2018-04-10T05:16:33.867Z,17.50
2018-04-10T05:19:02.119Z,16.83
2018-04-10T05:21:30.703Z,17.80
2018-04-10T05:23:59.155Z,16.77
2018-04-10T05:26:28.175Z,17.43
2018-04-10T05:28:56.895Z,16.13
2018-04-10T05:31:25.142Z,16.63
2018-04-10T05:33:53.386Z,16.60
2018-04-10T05:36:21.983Z,16.47
2018-04-10T05:38:50.235Z,16.43
2018-04-10T05:41:18.483Z,16.27
2018-04-10T05:43:47.156Z,17.80
2018-04-10T05:46:15.407Z,17.90
2018-04-10T05:48:43.659Z,17.10
2018-04-10T05:51:12.306Z,17.57
2018-04-10T05:53:40.552Z,18.07
2018-04-10T05:56:08.799Z,16.43
2018-04-10T05:58:37.338Z,17.07
2018-04-10T06:01:05.588Z,17.17
2018-04-10T06:03:33.896Z,17.17
2018-04-10T06:06:02.567Z,18.33
2018-04-10T06:08:30.824Z,17.87
2018-04-10T06:10:59.075Z,17.90
2018-04-10T06:13:28.016Z,18.33
2018-04-10T06:15:56.319Z,17.50
2018-04-10T06:18:24.581Z,17.47
2018-04-10T06:20:53.155Z,17.07
2018-04-10T06:23:21.411Z,17.60
2018-04-10T06:25:50.171Z,16.63
2018-04-10T06:28:19.510Z,16.93
2018-04-10T06:30:47.767Z,17.07
2018-04-10T06:33:16.015Z,15.73
2018-04-10T06:35:44.772Z,15.97
2018-04-10T06:38:13.015Z,15.53
2018-04-10T06:40:41.268Z,14.67
2018-04-10T06:43:09.861Z,16.63
2018-04-10T06:45:38.107Z,14.70
2018-04-10T06:48:06.361Z,15.43
2018-04-10T06:50:34.922Z,14.70
2018-04-10T06:53:03.179Z,15.60
2018-04-10T06:55:31.635Z,14.17
2018-04-10T06:58:00.990Z,15.27
2018-04-10T07:00:29.247Z,14.33
2018-04-10T07:02:57.523Z,15.00
2018-04-10T07:05:26.119Z,15.03
2018-04-10T07:07:54.609Z,14.60
2018-04-10T07:10:22.834Z,13.87
2018-04-10T07:12:51.875Z,14.47
2018-04-10T07:15:20.127Z,13.43
2018-04-10T07:17:48.382Z,14.07
2018-04-10T07:20:17.016Z,14.17
2018-04-10T07:22:45.351Z,14.20
2018-04-10T07:25:14.367Z,13.07
2018-04-10T07:27:42.970Z,13.60
2018-04-10T07:30:11.223Z,14.77
2018-04-10T07:32:39.475Z,14.10
2018-04-10T07:35:08.519Z,14.47
2018-04-10T07:37:36.792Z,13.00
2018-04-10T07:40:05.040Z,14.13
2018-04-10T07:42:33.655Z,13.73
2018-04-10T07:45:01.903Z,15.20
2018-04-10T07:47:30.155Z,12.77
2018-04-10T07:49:58.441Z,12.83
2018-04-10T07:52:27.459Z,12.03
2018-04-10T07:54:55.711Z,12.10
2018-04-10T07:57:23.984Z,13.30
2018-04-10T07:59:52.235Z,13.20
2018-04-10T08:02:20.500Z,13.00
2018-04-10T08:04:49.138Z,12.63
2018-04-10T08:07:17.322Z,12.33
2018-04-10T08:09:45.580Z,12.80
2018-04-10T08:12:13.859Z,13.37
2018-04-10T08:14:42.882Z,13.20
2018-04-10T08:17:11.129Z,14.47
2018-04-10T08:19:39.401Z,13.30
2018-04-10T08:22:07.648Z,15.07
2018-04-10T08:24:36.027Z,12.80
2018-04-10T08:27:04.573Z,12.10
2018-04-10T08:29:33.126Z,13.60
2018-04-10T08:32:02.147Z,13.00
2018-04-10T08:34:30.515Z,12.20
2018-04-10T08:36:58.763Z,12.23
2018-04-10T08:39:27.011Z,13.00
2018-04-10T08:41:55.291Z,13.60
2018-04-10T08:44:23.544Z,12.13
2018-04-10T08:46:51.804Z,11.93
2018-04-10T08:49:20.276Z,10.90
2018-04-10T08:51:48.528Z,13.47
2018-04-10T08:54:17.547Z,11.90
2018-04-10T08:56:45.824Z,12.53
2018-04-10T08:59:14.079Z,12.50
2018-04-10T09:01:42.331Z,14.17
2018-04-10T09:04:10.731Z,12.40
2018-04-10T09:06:39.759Z,13.23
2018-04-10T09:09:08.239Z,12.07
2018-04-10T09:11:36.844Z,12.60
2018-04-10T09:14:05.099Z,10.93
2018-04-10T09:16:33.376Z,11.70
2018-04-10T09:19:01.666Z,11.13
2018-04-10T09:21:29.911Z,11.63
2018-04-10T09:23:58.213Z,11.37
2018-04-10T09:26:28.123Z,10.97
2018-04-10T09:28:56.732Z,10.50
2018-04-10T09:31:25.368Z,10.30
2018-04-10T09:33:54.621Z,10.00
2018-04-10T09:36:22.872Z,9.40
2018-04-10T09:38:51.113Z,10.20
2018-04-10T09:41:20.155Z,9.80
2018-04-10T09:43:48.440Z,9.20
2018-04-10T09:46:16.648Z,8.60
2018-04-10T09:48:45.679Z,9.50
2018-04-10T09:51:13.931Z,8.93
2018-04-10T09:53:42.947Z,8.47
2018-04-10T09:56:11.388Z,8.30
2018-04-10T09:58:39.627Z,8.93
2018-04-10T10:01:07.925Z,8.60
2018-04-10T10:03:36.176Z,9.13
2018-04-10T10:06:04.515Z,7.30
2018-04-10T10:08:33.519Z,8.67
2018-04-10T10:11:02.560Z,8.83
2018-04-10T10:13:30.808Z,8.70
2018-04-10T10:15:59.227Z,9.40
2018-04-10T10:18:27.996Z,9.00
2018-04-10T10:20:56.248Z,10.13
2018-04-10T10:23:24.496Z,9.70
2018-04-10T10:25:53.531Z,10.50
2018-04-10T10:28:21.787Z,9.37
2018-04-10T10:30:50.804Z,10.47
2018-04-10T10:33:19.391Z,11.53
2018-04-10T10:35:47.651Z,11.83
2018-04-10T10:38:15.904Z,12.17
2018-04-10T10:40:45.261Z,10.80
2018-04-10T10:43:13.587Z,13.43
2018-04-10T10:45:42.605Z,12.27
2018-04-10T10:48:10.891Z,13.27
2018-04-10T10:50:39.131Z,11.80
2018-04-10T10:53:07.392Z,12.43
2018-04-10T10:55:35.675Z,12.17
2018-04-10T10:58:03.940Z,12.97
2018-04-10T11:00:32.955Z,11.57
2018-04-10T11:03:01.275Z,12.50
2018-04-10T11:05:29.539Z,13.07
2018-04-10T11:07:57.964Z,14.50
2018-04-10T11:10:26.363Z,14.07
2018-04-10T11:12:55.383Z,14.00
2018-04-10T11:15:23.650Z,12.80
2018-04-10T11:17:51.943Z,13.70
2018-04-10T11:20:20.192Z,13.30
2018-04-10T11:22:49.208Z,13.70
2018-04-10T11:25:17.975Z,14.43
2018-04-10T11:27:46.219Z,13.47
2018-04-10T11:30:14.472Z,14.13
2018-04-10T11:32:42.747Z,16.27
2018-04-10T11:35:11.397Z,14.47
2018-04-10T11:37:40.555Z,14.83
2018-04-10T11:40:08.812Z,15.17
2018-04-10T11:42:37.145Z,14.67
2018-04-10T11:45:06.329Z,16.40
2018-04-10T11:47:34.872Z,14.63
2018-04-10T11:50:03.207Z,14.10
2018-04-10T11:52:32.228Z,14.60
2018-04-10T11:55:00.501Z,14.93
2018-04-10T11:57:28.751Z,15.70
2018-04-10T11:59:56.999Z,15.07
2018-04-10T12:02:25.279Z,15.33
2018-04-10T12:04:55.040Z,16.00
2018-04-10T12:07:24.056Z,15.73
2018-04-10T12:09:52.427Z,15.50
2018-04-10T12:12:20.771Z,16.10
2018-04-10T12:14:49.787Z,16.07
2018-04-10T12:17:18.064Z,15.67
2018-04-10T12:19:46.316Z,14.37
2018-04-10T12:22:14.574Z,16.33
2018-04-10T12:24:42.839Z,16.03
2018-04-10T12:27:13.974Z,15.10
2018-04-10T12:29:42.208Z,16.70
2018-04-10T12:32:10.914Z,17.00
2018-04-10T12:34:39.424Z,15.40
2018-04-10T12:37:08.856Z,15.90
2018-04-10T12:39:37.905Z,16.50
2018-04-10T12:42:06.179Z,15.70
2018-04-10T12:44:34.434Z,15.50
2018-04-10T12:47:02.707Z,17.07
2018-04-10T12:49:31.031Z,16.70
2018-04-10T12:51:59.609Z,16.40
2018-04-10T12:54:28.170Z,16.50
2018-04-10T12:56:56.423Z,15.03
2018-04-10T12:59:24.671Z,15.70
2018-04-10T13:01:52.963Z,18.40
2018-04-10T13:04:21.974Z,17.30
2018-04-10T13:06:50.237Z,17.00
2018-04-10T13:09:18.511Z,16.80
2018-04-10T13:11:46.952Z,16.57
2018-04-10T13:14:15.179Z,16.23
2018-04-10T13:16:43.590Z,15.27
2018-04-10T13:19:11.885Z,15.57
2018-04-10T13:21:40.107Z,17.43
2018-04-10T13:24:08.390Z,15.27
2018-04-10T13:26:36.654Z,17.10
2018-04-10T13:29:04.985Z,19.13
2018-04-10T13:31:33.252Z,19.57
2018-04-10T13:34:01.495Z,16.93
2018-04-10T13:36:29.747Z,17.57
2018-04-10T13:38:58.703Z,19.33
2018-04-10T13:41:26.966Z,20.20
2018-04-10T13:43:55.368Z,19.10
2018-04-10T13:46:23.667Z,18.00
2018-04-10T13:48:52.140Z,17.93
2018-04-10T13:51:20.393Z,17.57
2018-04-10T13:53:48.660Z,18.93
2018-04-10T13:56:16.907Z,18.90
2018-04-10T13:58:45.159Z,19.13
2018-04-10T14:01:13.790Z,19.90
2018-04-10T14:03:43.027Z,18.80
2018-04-10T14:06:11.350Z,19.87
2018-04-10T14:08:39.616Z,20.47
2018-04-10T14:11:07.871Z,19.40
2018-04-10T14:13:36.119Z,18.80
2018-04-10T14:16:05.721Z,17.80
2018-04-10T14:18:33.967Z,18.00
2018-04-10T14:21:02.294Z,18.40
2018-04-10T14:23:30.832Z,17.80
2018-04-10T14:25:59.087Z,19.00
2018-04-10T14:28:27.434Z,17.80
2018-04-10T14:30:55.719Z,17.47
2018-04-10T14:33:24.078Z,18.60
2018-04-10T14:35:52.315Z,19.60
2018-04-10T14:38:20.673Z,18.87
2018-04-10T14:40:49.687Z,17.90
2018-04-10T14:43:18.043Z,17.63
2018-04-10T14:45:47.391Z,17.73
2018-04-10T14:48:15.647Z,18.60
2018-04-10T14:50:44.095Z,19.63
2018-04-10T14:53:12.347Z,19.20
2018-04-10T14:55:42.123Z,16.73
2018-04-10T14:58:10.443Z,18.83
2018-04-10T15:00:38.716Z,18.80
2018-04-10T15:03:09.656Z,18.57
2018-04-10T15:05:37.907Z,19.30
2018-04-10T15:08:06.608Z,18.57
2018-04-10T15:10:34.847Z,19.43
2018-04-10T15:13:03.284Z,18.73
2018-04-10T15:15:32.359Z,18.20
2018-04-10T15:18:00.714Z,20.53
2018-04-10T15:20:30.826Z,19.27
2018-04-10T15:23:00.271Z,18.50
2018-04-10T15:25:30.039Z,20.07
2018-04-10T15:27:58.365Z,19.40
2018-04-10T15:30:26.843Z,20.10
2018-04-10T15:32:56.044Z,19.00
2018-04-10T15:35:24.420Z,18.77
2018-04-10T15:37:54.404Z,19.90
2018-04-10T15:40:22.876Z,18.03
2018-04-10T15:42:51.123Z,19.33
2018-04-10T15:45:20.161Z,18.20
2018-04-10T15:47:48.420Z,18.67
2018-04-10T15:50:16.671Z,17.83
2018-04-10T15:52:45.292Z,18.33
2018-04-10T15:55:13.551Z,19.40
2018-04-10T15:57:41.979Z,19.50
2018-04-10T16:00:10.256Z,18.40
2018-04-10T16:02:38.523Z,17.90
2018-04-10T16:05:06.763Z,19.37
2018-04-10T16:07:35.768Z,19.27
2018-04-10T16:10:04.019Z,20.10
2018-04-10T16:12:32.267Z,20.53
2018-04-10T16:15:00.703Z,18.40
2018-04-10T16:17:29.211Z,17.93
2018-04-10T16:19:57.444Z,18.10
2018-04-10T16:22:25.795Z,19.57
2018-04-10T16:24:54.815Z,14.90
2018-04-10T16:27:23.071Z,14.93
2018-04-10T16:29:51.343Z,12.93
2018-04-10T16:32:19.599Z,14.60
2018-04-10T16:34:47.977Z,12.70
2018-04-10T16:37:16.431Z,14.20
2018-04-10T16:39:44.698Z,14.97
2018-04-10T16:42:13.124Z,14.60
2018-04-10T16:44:41.399Z,14.57
2018-04-10T16:47:09.918Z,13.70
2018-04-10T16:49:38.167Z,14.37
2018-04-10T16:52:06.446Z,15.00
2018-04-10T16:54:34.698Z,13.50
2018-04-10T16:57:02.947Z,14.00
2018-04-10T16:59:31.532Z,13.73
2018-04-10T17:01:59.986Z,13.87
2018-04-10T17:04:28.219Z,14.70
2018-04-10T17:06:56.626Z,13.40
2018-04-10T17:09:25.656Z,13.50
2018-04-10T17:11:53.968Z,13.97
2018-04-10T17:14:22.380Z,13.73
2018-04-10T17:16:51.415Z,13.27
2018-04-10T17:19:19.772Z,13.93
2018-04-10T17:21:48.296Z,15.70
2018-04-10T17:24:16.528Z,15.17
2018-04-10T17:26:44.783Z,16.27
2018-04-10T17:29:13.276Z,14.40
2018-04-10T17:31:41.815Z,16.40
2018-04-10T17:34:10.076Z,15.90
2018-04-10T17:36:38.348Z,18.50
2018-04-10T17:39:06.606Z,15.97
2018-04-10T17:41:34.855Z,16.20
2018-04-10T17:44:04.198Z,14.67
2018-04-10T17:46:32.536Z,11.90
2018-04-10T17:49:00.883Z,9.87
2018-04-10T17:51:29.287Z,8.90
2018-04-10T17:53:58.300Z,8.07
2018-04-10T17:56:26.584Z,8.50
2018-04-10T17:58:54.864Z,7.33
2018-04-10T18:01:23.136Z,7.90
2018-04-10T18:03:52.275Z,6.43
2018-04-10T18:06:20.844Z,6.27
2018-04-10T18:08:49.089Z,5.03
2018-04-10T18:11:17.330Z,5.20
2018-04-10T18:13:46.368Z,5.20
2018-04-10T18:16:14.603Z,4.80
2018-04-10T18:18:42.867Z,4.73
2018-04-10T18:21:11.184Z,4.80
2018-04-10T18:23:39.391Z,5.20
2018-04-10T18:26:07.636Z,5.30
2018-04-10T18:28:36.255Z,5.43
2018-04-10T18:31:04.551Z,4.83
2018-04-10T18:33:32.831Z,4.57
2018-04-10T18:36:01.093Z,4.47
2018-04-10T18:38:29.331Z,3.80
2018-04-10T18:40:57.567Z,4.07
2018-04-10T18:43:25.840Z,4.23
2018-04-10T18:45:54.223Z,4.23
2018-04-10T18:48:22.604Z,4.00
2018-04-10T18:50:51.359Z,3.10
2018-04-10T18:53:19.659Z,2.97
2018-04-10T18:55:48.242Z,2.90
2018-04-10T18:58:16.505Z,3.90
2018-04-10T19:00:44.826Z,2.57
2018-04-10T19:03:13.989Z,3.03
2018-04-10T19:05:43.156Z,2.77
2018-04-10T19:08:11.464Z,4.23
2018-04-10T19:10:39.699Z,3.77
2018-04-10T19:13:08.311Z,3.40
2018-04-10T19:15:36.547Z,3.30
2018-04-10T19:18:04.836Z,3.40
2018-04-10T19:20:33.565Z,4.10
2018-04-10T19:23:01.831Z,3.23
2018-04-10T19:25:30.121Z,3.70
2018-04-10T19:27:58.389Z,3.30
2018-04-10T19:30:26.638Z,3.90
2018-04-10T19:32:55.015Z,4.20
2018-04-10T19:35:23.331Z,4.50
2018-04-10T19:37:51.575Z,3.20
2018-04-10T19:40:19.828Z,3.90
2018-04-10T19:42:48.843Z,4.30
2018-04-10T19:45:17.151Z,4.80
2018-04-10T19:47:45.882Z,4.20
2018-04-10T19:50:14.911Z,4.07
2018-04-10T19:52:43.153Z,3.17
2018-04-10T19:55:11.399Z,3.73
2018-04-10T19:57:39.868Z,3.57
2018-04-10T20:00:08.187Z,3.33
2018-04-10T20:02:36.423Z,3.53
2018-04-10T20:05:04.689Z,3.20
2018-04-10T20:07:32.930Z,3.77
2018-04-10T20:10:01.326Z,3.60
2018-04-10T20:12:29.577Z,3.10
2018-04-10T20:14:58.017Z,3.53
2018-04-10T20:17:26.395Z,3.40
2018-04-10T20:19:54.711Z,2.77
2018-04-10T20:22:22.955Z,3.17
2018-04-10T20:24:51.195Z,2.93
2018-04-10T20:27:19.761Z,2.43
2018-04-10T20:29:47.955Z,2.10
2018-04-10T20:32:16.219Z,2.40
2018-04-10T20:34:44.504Z,2.93
2018-04-10T20:37:13.115Z,2.67
2018-04-10T20:39:41.359Z,2.80
2018-04-10T20:42:09.955Z,1.93
2018-04-10T20:44:38.199Z,2.37
2018-04-10T20:47:06.530Z,2.27
2018-04-10T20:49:34.775Z,2.60
2018-04-10T20:52:03.123Z,2.20
2018-04-10T20:54:32.139Z,1.83
2018-04-10T20:57:00.418Z,2.30
2018-04-10T20:59:28.651Z,2.57
2018-04-10T21:01:57.044Z,1.80
2018-04-10T21:04:26.287Z,2.00
2018-04-10T21:06:54.896Z,2.10
2018-04-10T21:09:23.182Z,1.73
2018-04-10T21:11:51.441Z,2.20
2018-04-10T21:14:19.698Z,2.13
2018-04-10T21:16:48.131Z,2.47
2018-04-10T21:19:16.503Z,1.90
2018-04-10T21:21:44.872Z,2.10
2018-04-10T21:24:13.251Z,2.10
2018-04-10T21:26:41.572Z,1.83
2018-04-10T21:29:09.811Z,2.70
2018-04-10T21:31:38.819Z,2.20
2018-04-10T21:34:07.269Z,1.97
2018-04-10T21:36:35.492Z,2.33
2018-04-10T21:39:04.499Z,2.37
2018-04-10T21:41:32.762Z,2.20
2018-04-10T21:44:00.999Z,1.93
2018-04-10T21:46:29.244Z,2.20
2018-04-10T21:48:58.091Z,2.23
2018-04-10T21:51:26.338Z,2.90
2018-04-10T21:53:54.571Z,2.20
2018-04-10T21:56:22.843Z,2.17
2018-04-10T21:58:51.080Z,2.50
2018-04-10T22:01:19.541Z,2.57
2018-04-10T22:03:47.808Z,2.70
2018-04-10T22:06:16.051Z,2.90
2018-04-10T22:08:44.316Z,2.67
2018-04-10T22:11:12.958Z,2.47
2018-04-10T22:13:41.179Z,3.10
2018-04-10T22:16:10.495Z,3.00
2018-04-10T22:18:38.768Z,2.83
2018-04-10T22:21:07.004Z,3.00
2018-04-10T22:23:35.243Z,3.30
2018-04-10T22:26:03.764Z,2.70
2018-04-10T22:28:31.999Z,3.17
2018-04-10T22:31:00.248Z,2.83
2018-04-10T22:33:29.193Z,3.23
2018-04-10T22:35:57.443Z,2.80
2018-04-10T22:38:25.692Z,2.77
2018-04-10T22:40:53.951Z,2.50
2018-04-10T22:43:22.196Z,3.00
2018-04-10T22:45:50.434Z,2.67
2018-04-10T22:48:18.695Z,2.37
2018-04-10T22:50:46.971Z,2.80
2018-04-10T22:53:15.213Z,3.00
2018-04-10T22:55:44.552Z,2.87
2018-04-10T22:58:12.800Z,2.77
2018-04-10T23:00:45.743Z,3.03
2018-04-10T23:03:13.982Z,3.03
2018-04-10T23:05:42.224Z,3.10
2018-04-10T23:08:10.510Z,3.23
2018-04-10T23:10:38.747Z,3.13
2018-04-10T23:13:06.988Z,2.63
2018-04-10T23:15:35.607Z,3.00
2018-04-10T23:18:03.875Z,3.60
2018-04-10T23:20:32.111Z,3.47
2018-04-10T23:23:00.379Z,3.73
2018-04-10T23:25:28.615Z,3.30
2018-04-10T23:27:56.853Z,3.50
2018-04-10T23:30:25.879Z,3.30
2018-04-10T23:32:54.123Z,3.53
2018-04-10T23:35:22.361Z,4.70
2018-04-10T23:37:51.038Z,3.00
2018-04-10T23:40:19.271Z,3.50
2018-04-10T23:42:47.516Z,3.60
2018-04-10T23:45:15.777Z,3.87
2018-04-10T23:47:44.027Z,3.50
2018-04-10T23:50:12.380Z,3.87
2018-04-10T23:52:40.979Z,4.60
2018-04-10T23:55:09.215Z,3.73
2018-04-10T23:57:37.454Z,3.60
